Time;durP1;ratioP1;P1;durP2;ratioP2;P2;SDS_P1;SDS_P2;PMS_P1;PMS_P2;Temp;Humidity;BMP_temperature;BMP_pressure;BME280_temperature;BME280_humidity;BME280_pressure;Samples;Min_cycle;Max_cycle;Signal;HPM_P1;HPM_P2
2021/05/05 00:02:17;;;;;;;1.77;1.50;;;23.20;28.50;;;;;;5052434;28;20200;-41
2021/05/05 00:04:43;;;;;;;1.57;1.47;;;23.20;28.60;;;;;;5052623;28;20204;-41
2021/05/05 00:07:09;;;;;;;1.90;1.40;;;23.20;28.60;;;;;;5051996;28;20851;-42
2021/05/05 00:09:35;;;;;;;1.30;1.20;;;23.20;28.60;;;;;;5052142;28;20262;-42
2021/05/05 00:12:00;;;;;;;1.90;1.80;;;23.20;28.70;;;;;;5053077;28;20342;-41
2021/05/05 00:14:26;;;;;;;1.83;1.50;;;23.20;28.70;;;;;;5050756;28;20202;-42
2021/05/05 00:16:52;;;;;;;1.83;1.70;;;23.20;28.70;;;;;;5049137;28;20229;-41
2021/05/05 00:19:18;;;;;;;1.53;1.43;;;23.20;28.70;;;;;;5051037;28;20599;-41
2021/05/05 00:21:44;;;;;;;2.73;1.30;;;23.20;28.70;;;;;;5051704;28;20213;-42
2021/05/05 00:24:10;;;;;;;1.93;1.13;;;23.20;28.70;;;;;;5052073;28;20263;-41
2021/05/05 00:26:36;;;;;;;1.40;1.30;;;23.20;28.80;;;;;;5053518;28;20224;-41
2021/05/05 00:29:02;;;;;;;1.10;1.10;;;23.20;28.80;;;;;;5050853;28;20267;-42
2021/05/05 00:31:29;;;;;;;1.27;1.23;;;23.20;28.80;;;;;;5052288;28;20267;-41
2021/05/05 00:33:55;;;;;;;2.67;1.70;;;23.20;28.70;;;;;;5051750;28;20208;-40
2021/05/05 00:36:21;;;;;;;1.77;1.40;;;23.30;29.10;;;;;;5052788;28;20217;-42
2021/05/05 00:38:47;;;;;;;1.97;1.40;;;23.30;28.90;;;;;;5051997;28;20255;-42
2021/05/05 00:41:13;;;;;;;1.50;1.40;;;23.20;28.70;;;;;;5052288;28;20224;-41
2021/05/05 00:43:38;;;;;;;2.17;1.40;;;23.20;28.90;;;;;;5052823;28;20206;-42
2021/05/05 00:46:04;;;;;;;1.77;1.67;;;23.20;28.80;;;;;;5050686;28;20202;-41
2021/05/05 00:48:30;;;;;;;1.47;1.37;;;23.20;28.80;;;;;;5052501;28;20213;-41
2021/05/05 00:50:56;;;;;;;2.50;1.30;;;23.20;28.90;;;;;;5052576;28;20538;-42
2021/05/05 00:53:22;;;;;;;4.63;1.77;;;23.20;28.90;;;;;;5051409;28;20202;-42
2021/05/05 00:55:48;;;;;;;1.92;1.83;;;23.20;29.00;;;;;;5050740;28;20202;-41
2021/05/05 00:58:14;;;;;;;1.43;1.33;;;23.20;29.00;;;;;;5051116;28;20202;-41
2021/05/05 01:00:40;;;;;;;1.63;1.40;;;23.20;28.90;;;;;;5049939;28;20229;-41
2021/05/05 01:03:06;;;;;;;1.43;1.33;;;23.20;28.90;;;;;;5051241;28;20209;-42
2021/05/05 01:05:32;;;;;;;2.93;1.50;;;23.20;29.20;;;;;;5049924;28;20252;-42
2021/05/05 01:07:58;;;;;;;2.10;1.47;;;23.20;29.10;;;;;;5052163;28;20578;-41
2021/05/05 01:10:24;;;;;;;1.27;1.17;;;23.20;29.20;;;;;;5052289;28;20206;-42
2021/05/05 01:12:50;;;;;;;3.10;1.50;;;23.20;29.20;;;;;;5051504;28;20220;-42
2021/05/05 01:15:16;;;;;;;2.10;1.80;;;23.20;29.20;;;;;;5050660;28;20201;-42
2021/05/05 01:17:42;;;;;;;1.73;1.30;;;23.20;29.30;;;;;;5052371;28;20572;-41
2021/05/05 01:20:08;;;;;;;1.92;1.20;;;23.20;29.20;;;;;;5051122;28;20228;-41
2021/05/05 01:22:34;;;;;;;1.73;1.63;;;23.20;29.20;;;;;;5051605;28;20206;-41
2021/05/05 01:25:00;;;;;;;1.42;1.30;;;23.20;29.40;;;;;;5041597;28;20202;-42
2021/05/05 01:27:26;;;;;;;3.10;1.40;;;23.20;29.20;;;;;;5051216;28;20221;-41
2021/05/05 01:29:52;;;;;;;2.67;1.40;;;23.20;29.40;;;;;;5051721;28;20731;-41
2021/05/05 01:32:18;;;;;;;2.00;1.50;;;23.20;29.40;;;;;;5050944;28;20198;-41
2021/05/05 01:34:44;;;;;;;2.08;1.33;;;23.20;29.40;;;;;;5050120;28;20583;-42
2021/05/05 01:37:10;;;;;;;1.40;1.30;;;23.20;29.30;;;;;;5049301;28;20294;-41
2021/05/05 01:39:36;;;;;;;1.30;1.17;;;23.20;29.30;;;;;;5052132;28;20631;-41
2021/05/05 01:42:02;;;;;;;1.40;1.30;;;23.20;29.30;;;;;;5051173;28;20201;-41
2021/05/05 01:44:28;;;;;;;1.20;1.20;;;23.20;29.30;;;;;;5051259;28;20236;-41
2021/05/05 01:46:54;;;;;;;2.90;1.70;;;23.20;29.30;;;;;;5050014;28;20224;-41
2021/05/05 01:49:20;;;;;;;2.03;1.30;;;23.20;29.40;;;;;;5050331;28;20205;-41
2021/05/05 01:51:46;;;;;;;1.40;1.30;;;23.20;29.40;;;;;;5048827;28;20573;-42
2021/05/05 01:54:12;;;;;;;1.30;1.20;;;23.20;29.40;;;;;;5036105;28;20201;-40
2021/05/05 01:56:38;;;;;;;1.97;1.53;;;23.20;29.40;;;;;;5050890;28;20237;-41
2021/05/05 01:59:04;;;;;;;1.53;1.43;;;23.20;29.40;;;;;;5050272;28;20232;-41
2021/05/05 02:01:30;;;;;;;1.63;1.35;;;23.20;29.40;;;;;;5050867;28;20288;-41
2021/05/05 02:04:00;;;;;;;2.55;1.33;;;23.20;29.50;;;;;;5047669;28;20619;-42
2021/05/05 02:06:26;;;;;;;1.80;1.38;;;23.20;29.40;;;;;;5050627;28;20368;-41
2021/05/05 02:08:52;;;;;;;1.60;1.33;;;23.20;29.40;;;;;;5050474;28;20202;-41
2021/05/05 02:11:18;;;;;;;1.57;1.40;;;23.20;29.60;;;;;;5051798;28;20295;-41
2021/05/05 02:13:44;;;;;;;2.90;1.30;;;23.20;29.50;;;;;;5049613;28;20205;-42
2021/05/05 02:16:10;;;;;;;1.70;1.45;;;23.20;29.40;;;;;;5045744;28;20221;-41
2021/05/05 02:18:36;;;;;;;1.80;1.20;;;23.20;29.60;;;;;;5048896;28;20201;-41
2021/05/05 02:21:02;;;;;;;1.30;1.20;;;23.20;29.70;;;;;;5051014;28;20567;-41
2021/05/05 02:23:28;;;;;;;1.50;1.30;;;23.20;29.60;;;;;;5049446;28;20209;-41
2021/05/05 02:25:54;;;;;;;1.35;1.20;;;23.20;29.70;;;;;;5051171;28;20235;-41
2021/05/05 02:28:20;;;;;;;1.40;1.30;;;23.20;29.80;;;;;;5050598;28;20202;-41
2021/05/05 02:30:46;;;;;;;1.40;1.30;;;23.20;29.70;;;;;;5050962;28;20263;-42
2021/05/05 02:33:12;;;;;;;2.38;1.38;;;23.20;29.80;;;;;;5048939;28;20205;-41
2021/05/05 02:35:38;;;;;;;1.43;1.30;;;23.20;29.80;;;;;;5048849;28;20201;-41
2021/05/05 02:38:04;;;;;;;1.40;1.30;;;23.20;29.80;;;;;;5050483;28;20655;-42
2021/05/05 02:40:30;;;;;;;1.70;1.50;;;23.20;30.50;;;;;;5049984;28;20241;-41
2021/05/05 02:42:56;;;;;;;2.00;1.10;;;23.20;29.90;;;;;;5050431;28;20201;-41
2021/05/05 02:45:22;;;;;;;1.00;1.00;;;23.20;29.90;;;;;;5049869;28;20194;-41
2021/05/05 02:47:48;;;;;;;1.50;1.40;;;23.20;29.90;;;;;;5050127;28;20206;-41
2021/05/05 02:50:14;;;;;;;1.77;1.20;;;23.20;29.90;;;;;;5047481;28;20228;-41
2021/05/05 02:52:40;;;;;;;1.40;1.30;;;23.20;29.90;;;;;;5049334;28;20206;-41
2021/05/05 02:55:06;;;;;;;1.33;1.20;;;23.20;29.80;;;;;;5047936;28;20666;-41
2021/05/05 02:57:32;;;;;;;1.43;1.33;;;23.20;29.80;;;;;;5044672;28;20290;-41
2021/05/05 02:59:58;;;;;;;2.83;1.30;;;23.20;29.80;;;;;;5050490;28;20763;-41
2021/05/05 03:02:24;;;;;;;1.10;1.00;;;23.20;29.80;;;;;;5048906;28;20198;-41
2021/05/05 03:04:51;;;;;;;1.00;1.00;;;23.20;29.90;;;;;;5049940;28;20209;-42
2021/05/05 03:07:18;;;;;;;1.48;1.30;;;23.20;29.90;;;;;;5048953;28;20218;-41
2021/05/05 03:09:44;;;;;;;1.47;1.37;;;23.20;29.80;;;;;;5050530;28;20287;-41
2021/05/05 03:12:09;;;;;;;1.30;1.20;;;23.20;29.50;;;;;;5049573;28;20201;-41
2021/05/05 03:14:35;;;;;;;1.87;1.40;;;23.20;29.40;;;;;;5050041;28;20209;-41
2021/05/05 03:17:01;;;;;;;1.10;1.07;;;23.20;29.40;;;;;;5048836;28;20268;-41
2021/05/05 03:19:27;;;;;;;1.40;1.30;;;23.20;29.30;;;;;;5049862;28;20686;-41
2021/05/05 03:21:53;;;;;;;1.25;1.15;;;23.20;29.40;;;;;;5050914;28;20251;-41
2021/05/05 03:24:19;;;;;;;1.38;1.27;;;23.20;29.30;;;;;;5048958;28;20611;-41
2021/05/05 03:26:45;;;;;;;1.60;1.50;;;23.20;29.40;;;;;;5048818;28;20228;-42
2021/05/05 03:29:11;;;;;;;2.00;1.10;;;23.20;29.30;;;;;;5048473;28;20665;-42
2021/05/05 03:31:37;;;;;;;1.30;1.20;;;23.20;29.20;;;;;;5049951;28;20201;-42
2021/05/05 03:34:03;;;;;;;1.40;1.30;;;23.20;29.30;;;;;;5048906;28;20565;-42
2021/05/05 03:36:29;;;;;;;1.50;1.40;;;23.20;29.20;;;;;;5049848;28;20245;-42
2021/05/05 03:38:55;;;;;;;1.23;1.10;;;23.20;29.30;;;;;;5049972;28;20244;-41
2021/05/05 03:41:21;;;;;;;1.40;1.20;;;23.20;29.40;;;;;;5050385;28;20662;-41
2021/05/05 03:43:47;;;;;;;1.20;1.10;;;23.20;29.30;;;;;;5048571;28;20269;-41
2021/05/05 03:46:13;;;;;;;1.20;1.10;;;23.20;29.40;;;;;;5032444;28;20703;-40
2021/05/05 03:48:39;;;;;;;1.30;1.20;;;23.20;29.20;;;;;;5048955;28;20213;-42
2021/05/05 03:51:05;;;;;;;1.37;1.27;;;23.20;29.80;;;;;;5049502;28;20541;-42
2021/05/05 03:53:31;;;;;;;1.10;1.10;;;23.20;29.40;;;;;;5049029;28;20216;-42
2021/05/05 03:55:57;;;;;;;1.67;1.20;;;23.20;29.30;;;;;;5049038;28;20226;-41
2021/05/05 03:58:23;;;;;;;2.00;1.30;;;23.20;29.30;;;;;;5048952;28;20339;-41
2021/05/05 04:00:49;;;;;;;1.33;1.23;;;23.20;29.30;;;;;;5048189;28;20240;-42
2021/05/05 04:03:15;;;;;;;1.40;1.20;;;23.20;29.30;;;;;;5050165;28;20301;-41
2021/05/05 04:05:41;;;;;;;1.50;1.40;;;23.20;29.30;;;;;;5051539;28;20225;-41
2021/05/05 04:08:07;;;;;;;1.23;1.20;;;23.20;29.30;;;;;;5053833;28;20335;-41
2021/05/05 04:10:33;;;;;;;1.43;1.30;;;23.20;29.30;;;;;;5052883;28;20198;-41
2021/05/05 04:12:59;;;;;;;1.27;1.17;;;23.20;29.40;;;;;;5052982;28;20205;-43
2021/05/05 04:15:25;;;;;;;1.35;1.25;;;23.20;29.40;;;;;;5052397;28;20197;-41
2021/05/05 04:17:51;;;;;;;1.00;1.00;;;23.20;29.40;;;;;;5045930;28;20682;-40
2021/05/05 04:20:17;;;;;;;1.40;1.30;;;23.20;29.40;;;;;;5052855;28;20298;-41
2021/05/05 04:22:43;;;;;;;1.20;1.10;;;23.20;29.40;;;;;;5053317;28;20597;-41
2021/05/05 04:25:09;;;;;;;1.38;1.27;;;23.20;29.30;;;;;;5050851;28;20197;-40
2021/05/05 04:27:35;;;;;;;1.87;1.57;;;23.20;29.40;;;;;;5053056;28;20201;-42
2021/05/05 04:30:01;;;;;;;1.30;1.20;;;23.20;29.30;;;;;;5069610;22;20263;-38
2021/05/05 04:32:27;;;;;;;1.25;1.15;;;23.20;29.30;;;;;;5066624;28;20201;-43
2021/05/05 04:34:53;;;;;;;1.10;1.10;;;23.20;29.30;;;;;;5068614;28;20681;-40
2021/05/05 04:37:19;;;;;;;1.35;1.25;;;23.20;29.30;;;;;;5062894;28;20216;-42
2021/05/05 04:39:45;;;;;;;1.30;1.17;;;23.20;29.30;;;;;;5067039;28;20698;-35
2021/05/05 04:42:11;;;;;;;1.42;1.33;;;23.20;29.30;;;;;;5072153;28;20221;-35
2021/05/05 04:44:37;;;;;;;1.17;1.02;;;23.20;29.30;;;;;;5069723;28;20204;-39
2021/05/05 04:47:03;;;;;;;1.40;1.10;;;23.20;29.90;;;;;;5071604;28;20209;-47
2021/05/05 04:49:29;;;;;;;1.20;1.10;;;23.20;29.40;;;;;;5072950;28;20216;-47
2021/05/05 04:51:55;;;;;;;1.40;1.30;;;23.20;29.40;;;;;;5071958;28;20197;-48
2021/05/05 04:54:21;;;;;;;1.20;1.10;;;23.20;29.40;;;;;;5067780;28;20556;-39
2021/05/05 04:56:47;;;;;;;1.47;1.20;;;23.20;29.40;;;;;;5068355;28;20224;-35
2021/05/05 04:59:13;;;;;;;1.40;1.30;;;23.20;29.40;;;;;;5068994;28;20264;-40
2021/05/05 05:01:39;;;;;;;2.10;1.58;;;23.20;29.40;;;;;;5071222;28;20193;-38
2021/05/05 05:04:05;;;;;;;1.08;1.08;;;23.20;29.30;;;;;;5068705;28;20204;-35
2021/05/05 05:06:31;;;;;;;1.40;1.30;;;23.20;29.30;;;;;;5054393;28;20221;-43
2021/05/05 05:08:57;;;;;;;1.30;1.13;;;23.20;29.40;;;;;;5060720;28;20564;-39
2021/05/05 05:11:23;;;;;;;1.10;1.00;;;23.20;29.30;;;;;;5072841;28;20212;-39
2021/05/05 05:13:49;;;;;;;1.27;1.10;;;23.20;29.40;;;;;;5058799;28;20224;-42
2021/05/05 05:16:15;;;;;;;1.88;1.10;;;23.20;29.40;;;;;;5065549;28;20217;-48
2021/05/05 05:18:41;;;;;;;1.30;1.20;;;23.20;29.30;;;;;;5069340;28;20201;-48
2021/05/05 05:21:07;;;;;;;1.80;1.30;;;23.20;29.50;;;;;;5072230;28;20200;-50
2021/05/05 05:23:33;;;;;;;1.27;1.17;;;23.20;29.40;;;;;;5070376;28;20204;-37
2021/05/05 05:25:59;;;;;;;1.42;1.33;;;23.20;29.50;;;;;;5070478;28;20221;-42
2021/05/05 05:28:25;;;;;;;1.35;1.10;;;23.20;29.40;;;;;;5066966;28;20205;-47
2021/05/05 05:30:51;;;;;;;1.27;1.17;;;23.20;29.40;;;;;;5066737;28;20216;-35
2021/05/05 05:33:17;;;;;;;1.27;1.17;;;23.20;29.50;;;;;;5068233;28;20250;-38
2021/05/05 05:35:43;;;;;;;1.20;1.10;;;23.20;29.40;;;;;;5069983;28;20712;-35
2021/05/05 05:38:09;;;;;;;1.35;1.25;;;23.20;29.40;;;;;;5065891;28;20200;-40
2021/05/05 05:40:35;;;;;;;1.03;1.03;;;23.20;29.40;;;;;;5068456;28;20267;-41
2021/05/05 05:43:01;;;;;;;1.20;1.10;;;23.20;29.40;;;;;;5070556;28;20212;-39
2021/05/05 05:45:27;;;;;;;1.20;1.10;;;23.20;29.40;;;;;;5068646;28;20217;-35
2021/05/05 05:47:53;;;;;;;1.27;1.20;;;23.20;29.40;;;;;;5066679;28;20220;-37
2021/05/05 05:50:20;;;;;;;1.42;1.00;;;23.20;29.40;;;;;;5071557;28;20212;-41
2021/05/05 05:52:46;;;;;;;1.42;1.10;;;23.20;29.40;;;;;;5070148;28;20209;-39
2021/05/05 05:55:12;;;;;;;1.23;1.13;;;23.20;29.40;;;;;;5068534;28;20262;-41
2021/05/05 05:57:39;;;;;;;1.45;1.35;;;23.20;29.50;;;;;;5071341;28;20250;-39
2021/05/05 06:00:05;;;;;;;1.20;1.10;;;23.20;29.50;;;;;;5069493;28;20229;-39
2021/05/05 06:02:31;;;;;;;1.20;1.10;;;23.20;29.50;;;;;;5070318;28;20205;-35
2021/05/05 06:04:57;;;;;;;1.20;1.10;;;23.20;29.60;;;;;;5064213;28;20593;-49
2021/05/05 06:07:23;;;;;;;1.17;1.07;;;23.20;30.00;;;;;;5070151;28;20197;-35
2021/05/05 06:09:49;;;;;;;1.63;1.10;;;23.20;29.50;;;;;;5069097;28;20204;-38
2021/05/05 06:12:15;;;;;;;1.10;1.10;;;23.20;29.50;;;;;;5066419;28;20204;-38
2021/05/05 06:14:41;;;;;;;1.55;1.10;;;23.20;29.50;;;;;;5069013;28;20574;-36
2021/05/05 06:17:07;;;;;;;1.10;1.00;;;23.20;29.50;;;;;;5069432;28;20202;-38
2021/05/05 06:19:33;;;;;;;1.10;1.00;;;23.20;29.50;;;;;;5064916;28;20232;-40
2021/05/05 06:21:59;;;;;;;1.88;1.25;;;23.20;29.60;;;;;;5061445;28;20671;-36
2021/05/05 06:24:25;;;;;;;1.65;1.00;;;23.20;29.60;;;;;;5068368;28;20204;-41
2021/05/05 06:26:51;;;;;;;1.07;1.07;;;23.20;29.50;;;;;;5069912;28;20216;-39
2021/05/05 06:29:18;;;;;;;1.20;1.10;;;23.20;29.50;;;;;;5070109;28;20270;-39
2021/05/05 06:31:44;;;;;;;1.15;1.08;;;23.20;29.50;;;;;;5070526;28;20205;-39
2021/05/05 06:34:10;;;;;;;1.30;1.20;;;23.20;29.50;;;;;;5069026;28;20212;-35
2021/05/05 06:36:36;;;;;;;1.13;1.10;;;23.20;29.50;;;;;;5067818;28;20213;-50
2021/05/05 06:39:02;;;;;;;1.40;1.30;;;23.20;29.50;;;;;;5058121;28;20206;-37
2021/05/05 06:41:28;;;;;;;1.30;1.20;;;23.20;30.00;;;;;;5065792;28;20557;-39
2021/05/05 06:43:54;;;;;;;2.05;1.20;;;23.20;30.40;;;;;;5068215;28;20212;-43
2021/05/05 06:46:20;;;;;;;1.77;1.33;;;23.20;30.30;;;;;;5069591;28;20225;-38
2021/05/05 06:48:46;;;;;;;3.15;1.42;;;23.20;30.50;;;;;;5071029;28;20266;-38
2021/05/05 06:51:12;;;;;;;2.60;1.20;;;23.20;31.60;;;;;;5057283;28;20302;-42
2021/05/05 06:53:38;;;;;;;3.95;1.52;;;23.20;31.50;;;;;;5065250;28;20287;-39
2021/05/05 06:56:04;;;;;;;2.30;1.55;;;23.20;31.50;;;;;;5064514;28;20217;-38
2021/05/05 06:58:30;;;;;;;4.23;1.40;;;23.20;32.10;;;;;;5057176;28;20573;-37
2021/05/05 07:00:56;;;;;;;4.50;1.50;;;23.30;31.40;;;;;;5068165;28;20228;-43
2021/05/05 07:03:22;;;;;;;3.20;1.10;;;23.30;31.20;;;;;;5067766;28;20212;-34
2021/05/05 07:05:48;;;;;;;3.40;1.25;;;23.30;31.30;;;;;;5063551;28;20278;-36
2021/05/05 07:08:14;;;;;;;2.50;1.30;;;23.20;30.60;;;;;;5058039;28;20197;-46
2021/05/05 07:10:40;;;;;;;1.63;1.00;;;22.30;29.00;;;;;;5057813;28;20658;-38
2021/05/05 07:13:06;;;;;;;2.50;1.10;;;21.60;28.50;;;;;;5051829;28;20240;-35
2021/05/05 07:15:32;;;;;;;4.00;1.40;;;21.40;29.20;;;;;;5057418;28;20247;-35
2021/05/05 07:17:58;;;;;;;1.80;1.13;;;21.80;28.60;;;;;;5057951;28;20246;-35
2021/05/05 07:20:24;;;;;;;2.27;1.00;;;22.20;28.60;;;;;;5049757;28;20296;-37
2021/05/05 07:22:50;;;;;;;1.17;1.07;;;22.40;28.60;;;;;;5060561;28;20209;-34
2021/05/05 07:25:16;;;;;;;1.53;0.87;;;22.60;28.50;;;;;;5067598;28;20227;-35
2021/05/05 07:27:43;;;;;;;1.57;1.03;;;22.70;28.40;;;;;;5068311;28;20199;-39
2021/05/05 07:30:09;;;;;;;0.90;0.90;;;22.70;28.40;;;;;;5054146;28;20334;-35
2021/05/05 07:32:35;;;;;;;0.90;0.90;;;22.80;28.40;;;;;;5063080;28;20201;-35
2021/05/05 07:35:03;;;;;;;1.47;1.00;;;22.80;28.40;;;;;;5069258;28;20228;-43
2021/05/05 07:37:33;;;;;;;0.80;0.80;;;22.90;28.60;;;;;;5067371;28;20204;-41
2021/05/05 07:40:24;;;;;;;1.73;0.80;;;22.90;28.40;;;;;;5065540;28;20236;-35
2021/05/05 07:45:49;;;;;;;1.03;0.80;;;23.00;28.80;;;;;;5067358;28;20224;-41
2021/05/05 07:48:24;;;;;;;0.70;0.70;;;23.10;28.60;;;;;;5065513;28;20250;-36
2021/05/05 07:50:50;;;;;;;1.23;0.93;;;23.00;28.50;;;;;;5054175;28;20738;-38
2021/05/05 07:53:16;;;;;;;1.50;0.90;;;23.00;28.50;;;;;;5064609;28;20205;-35
2021/05/05 07:55:42;;;;;;;0.82;0.82;;;23.00;28.50;;;;;;5069898;28;20254;-38
2021/05/05 07:58:08;;;;;;;1.50;0.82;;;23.00;28.50;;;;;;5061448;28;20205;-35
2021/05/05 08:00:34;;;;;;;0.82;0.70;;;23.00;28.50;;;;;;5071042;28;20341;-34
2021/05/05 08:03:00;;;;;;;1.53;1.00;;;23.00;28.50;;;;;;5066276;28;20204;-34
2021/05/05 08:05:26;;;;;;;1.38;0.88;;;23.00;28.50;;;;;;5066455;28;20233;-35
2021/05/05 08:07:53;;;;;;;1.20;1.08;;;22.90;28.40;;;;;;5066698;28;20280;-38
2021/05/05 08:10:19;;;;;;;1.70;0.90;;;23.00;28.50;;;;;;5062978;28;20282;-35
2021/05/05 08:12:45;;;;;;;1.80;1.17;;;23.10;28.30;;;;;;5062826;28;20254;-35
2021/05/05 08:15:11;;;;;;;1.95;1.10;;;22.80;27.90;;;;;;5061129;28;20228;-35
2021/05/05 08:17:37;;;;;;;2.22;1.08;;;22.70;27.60;;;;;;5070110;28;20221;-62
2021/05/05 08:20:03;;;;;;;2.90;1.10;;;22.70;27.80;;;;;;5058153;28;20228;-35
2021/05/05 08:22:29;;;;;;;1.10;1.00;;;22.80;27.90;;;;;;5062941;28;20681;-37
2021/05/05 08:24:55;;;;;;;1.75;0.90;;;22.90;28.00;;;;;;5062115;28;20232;-48
2021/05/05 08:27:22;;;;;;;2.20;1.00;;;23.00;28.10;;;;;;5067724;28;20687;-37
2021/05/05 08:29:48;;;;;;;2.00;0.90;;;23.10;28.10;;;;;;5070574;28;20311;-36
2021/05/05 08:32:14;;;;;;;1.10;0.80;;;23.10;28.10;;;;;;5065136;28;20561;-36
2021/05/05 08:34:40;;;;;;;0.60;0.60;;;23.10;27.90;;;;;;5054670;28;20225;-45
2021/05/05 08:37:06;;;;;;;1.50;0.90;;;23.10;28.10;;;;;;5058660;28;20216;-38
2021/05/05 08:39:32;;;;;;;5.60;1.10;;;23.10;28.10;;;;;;5054953;28;20229;-40
2021/05/05 08:41:58;;;;;;;1.50;0.70;;;23.20;28.20;;;;;;5069782;28;20606;-47
2021/05/05 08:44:24;;;;;;;5.85;1.00;;;23.10;28.10;;;;;;5066408;28;20328;-45
2021/05/05 08:46:50;;;;;;;1.13;0.90;;;23.10;28.00;;;;;;5067309;28;20210;-37
2021/05/05 08:49:16;;;;;;;3.03;0.88;;;23.00;28.00;;;;;;5070078;28;20205;-41
2021/05/05 08:51:42;;;;;;;3.58;0.80;;;23.10;28.10;;;;;;5069561;28;20226;-41
2021/05/05 08:54:08;;;;;;;2.65;1.00;;;23.10;28.10;;;;;;5054296;28;20221;-38
2021/05/05 08:56:35;;;;;;;2.95;0.90;;;23.10;28.10;;;;;;5058983;28;20213;-48
2021/05/05 08:59:01;;;;;;;4.03;1.20;;;23.10;28.10;;;;;;5061833;28;20256;-38
2021/05/05 09:01:27;;;;;;;1.42;0.90;;;23.10;28.10;;;;;;5068108;28;20573;-41
2021/05/05 09:03:53;;;;;;;2.13;1.00;;;23.00;28.00;;;;;;5069267;28;20247;-48
2021/05/05 09:06:19;;;;;;;1.10;0.80;;;23.00;28.00;;;;;;5069664;28;20197;-45
2021/05/05 09:08:45;;;;;;;3.07;0.80;;;23.00;28.00;;;;;;5067826;28;20209;-41
2021/05/05 09:11:11;;;;;;;1.57;1.33;;;23.00;27.10;;;;;;5063669;28;20197;-45
2021/05/05 09:13:37;;;;;;;1.23;1.00;;;22.90;28.00;;;;;;5070358;28;20207;-40
2021/05/05 09:16:03;;;;;;;0.80;0.70;;;23.00;28.00;;;;;;5065056;28;20210;-39
2021/05/05 09:18:29;;;;;;;2.20;0.90;;;23.00;28.00;;;;;;5062829;28;20295;-40
2021/05/05 09:20:55;;;;;;;1.58;1.35;;;23.10;28.00;;;;;;5052627;28;20759;-40
2021/05/05 09:23:21;;;;;;;1.33;0.80;;;23.10;28.10;;;;;;5070273;28;20201;-49
2021/05/05 09:25:51;;;;;;;1.83;1.00;;;23.00;28.00;;;;;;5070166;28;20216;-40
2021/05/05 09:28:17;;;;;;;1.60;0.90;;;23.00;27.90;;;;;;5063426;28;20209;-44
2021/05/05 09:30:43;;;;;;;0.87;0.87;;;23.00;28.10;;;;;;5060368;28;20639;-39
2021/05/05 09:33:09;;;;;;;1.03;0.90;;;23.00;28.00;;;;;;5069122;28;20232;-48
2021/05/05 09:35:35;;;;;;;1.40;0.90;;;23.00;27.80;;;;;;5066090;28;20278;-46
2021/05/05 09:38:01;;;;;;;0.85;0.85;;;22.80;27.70;;;;;;5059245;28;20612;-43
2021/05/05 09:40:27;;;;;;;3.43;1.17;;;22.90;28.00;;;;;;5067979;28;20232;-50
2021/05/05 09:42:53;;;;;;;1.00;0.90;;;22.90;28.00;;;;;;5062077;28;20256;-36
2021/05/05 09:45:19;;;;;;;1.65;0.95;;;23.00;28.00;;;;;;5055856;28;20220;-44
2021/05/05 09:47:45;;;;;;;0.83;0.80;;;23.00;28.00;;;;;;5064341;28;20236;-37
2021/05/05 09:50:11;;;;;;;1.63;0.85;;;23.00;28.00;;;;;;5053357;28;20205;-38
2021/05/05 09:52:37;;;;;;;3.70;0.97;;;23.00;28.00;;;;;;5054416;28;20201;-42
2021/05/05 09:55:04;;;;;;;3.60;1.02;;;23.00;28.00;;;;;;5062084;28;20224;-42
2021/05/05 09:57:30;;;;;;;2.95;1.15;;;23.00;28.00;;;;;;5069222;28;20311;-40
2021/05/05 09:59:59;;;;;;;5.63;1.35;;;;;;;;;;5065770;28;20229;-46
2021/05/05 10:02:25;;;;;;;1.00;0.82;;;23.40;73.30;;;;;;5062026;28;20205;-45
2021/05/05 10:04:51;;;;;;;1.37;0.80;;;23.10;28.10;;;;;;5063056;28;20229;-38
2021/05/05 10:07:17;;;;;;;1.33;1.00;;;23.10;28.10;;;;;;5067053;28;20219;-50
2021/05/05 10:09:43;;;;;;;1.95;1.10;;;22.90;27.70;;;;;;5068180;28;20201;-50
2021/05/05 10:12:09;;;;;;;1.47;0.80;;;22.80;27.90;;;;;;5065172;28;20204;-49
2021/05/05 10:14:37;;;;;;;1.47;1.23;;;22.90;28.00;;;;;;5057953;28;20232;-42
2021/05/05 10:17:03;;;;;;;1.23;1.00;;;22.90;28.00;;;;;;5054413;28;20284;-51
2021/05/05 10:19:34;;;;;;;0.70;0.70;;;22.90;28.00;;;;;;5057186;28;20226;-46
2021/05/05 10:22:00;;;;;;;1.77;0.90;;;22.90;28.00;;;;;;5057989;28;20209;-46
2021/05/05 10:24:26;;;;;;;1.07;0.80;;;22.90;28.00;;;;;;5057989;28;20543;-51
2021/05/05 10:26:52;;;;;;;1.83;1.00;;;22.90;28.00;;;;;;5061615;28;20246;-44
2021/05/05 10:29:18;;;;;;;1.07;0.90;;;22.90;28.00;;;;;;5059554;28;20201;-40
2021/05/05 10:31:44;;;;;;;1.33;0.70;;;22.90;28.00;;;;;;5060988;28;20204;-48
2021/05/05 10:34:15;;;;;;;1.70;0.90;;;22.90;28.00;;;;;;5059583;28;20260;-42
2021/05/05 10:36:41;;;;;;;1.10;1.00;;;22.90;28.00;;;;;;5058258;28;20258;-57
2021/05/05 10:39:07;;;;;;;1.63;0.90;;;22.90;28.00;;;;;;5054411;28;20208;-45
2021/05/05 10:41:34;;;;;;;0.80;0.80;;;22.90;28.00;;;;;;5056783;28;20212;-42
2021/05/05 10:44:02;;;;;;;1.83;0.80;;;22.80;27.90;;;;;;5057058;28;20308;-45
2021/05/05 10:46:28;;;;;;;1.13;0.73;;;22.80;27.90;;;;;;5057967;28;20274;-53
2021/05/05 10:48:54;;;;;;;0.80;0.80;;;22.80;27.90;;;;;;5061937;28;20249;-51
2021/05/05 10:51:20;;;;;;;1.03;0.80;;;22.80;27.90;;;;;;5060999;28;20266;-46
2021/05/05 10:53:47;;;;;;;2.67;0.90;;;22.80;27.90;;;;;;5057360;28;20593;-46
2021/05/05 10:56:13;;;;;;;1.03;0.80;;;22.90;28.00;;;;;;5060848;28;20246;-43
2021/05/05 10:58:39;;;;;;;1.83;0.93;;;22.90;27.90;;;;;;5060452;28;20205;-46
2021/05/05 11:01:05;;;;;;;2.20;1.03;;;23.00;28.10;;;;;;5058279;28;20695;-42
2021/05/05 11:03:31;;;;;;;2.33;1.20;;;23.00;27.90;;;;;;5061674;28;20212;-45
2021/05/05 11:05:57;;;;;;;2.73;1.10;;;23.00;27.60;;;;;;5053950;28;20254;-50
2021/05/05 11:08:24;;;;;;;2.87;1.50;;;23.00;27.60;;;;;;5058693;28;20223;-40
2021/05/05 11:10:51;;;;;;;4.50;1.60;;;23.00;27.60;;;;;;5062447;28;20311;-40
2021/05/05 11:13:17;;;;;;;16.03;10.20;;;23.00;27.40;;;;;;5064115;28;20285;-41
2021/05/05 11:15:44;;;;;;;4.87;3.80;;;23.10;27.70;;;;;;5066169;28;20201;-40
2021/05/05 11:18:10;;;;;;;15.13;10.10;;;23.10;27.60;;;;;;5061995;28;20230;-47
2021/05/05 11:20:36;;;;;;;8.50;6.30;;;23.20;27.90;;;;;;5074814;28;20699;-51
2021/05/05 11:23:02;;;;;;;12.17;7.80;;;23.20;28.00;;;;;;5068560;28;20220;-43
2021/05/05 11:25:28;;;;;;;12.83;9.27;;;23.20;28.20;;;;;;5064669;28;20204;-50
2021/05/05 11:27:54;;;;;;;13.63;10.77;;;23.20;28.20;;;;;;5063224;28;20649;-42
2021/05/05 11:30:20;;;;;;;14.65;9.38;;;23.20;28.20;;;;;;5064399;28;20220;-41
2021/05/05 11:32:46;;;;;;;16.75;12.88;;;23.20;28.50;;;;;;5062953;28;20196;-51
2021/05/05 11:35:12;;;;;;;16.27;11.57;;;23.30;28.30;;;;;;5062556;28;20581;-48
2021/05/05 11:37:38;;;;;;;13.50;9.97;;;23.30;28.20;;;;;;5066922;28;20910;-52
2021/05/05 11:40:04;;;;;;;11.63;9.07;;;23.20;28.20;;;;;;5067777;28;20282;-44
2021/05/05 11:42:32;;;;;;;10.20;8.10;;;23.10;27.50;;;;;;5072199;28;20208;-46
2021/05/05 11:44:59;;;;;;;13.23;8.60;;;23.10;27.40;;;;;;5068380;28;20259;-46
2021/05/05 11:47:25;;;;;;;13.60;9.30;;;23.10;27.40;;;;;;5074278;28;20204;-53
2021/05/05 11:49:51;;;;;;;14.50;8.70;;;23.10;27.60;;;;;;5072438;28;20259;-50
2021/05/05 11:52:17;;;;;;;11.93;9.03;;;23.10;27.70;;;;;;5075559;28;20207;-48
2021/05/05 11:54:43;;;;;;;11.00;8.40;;;23.20;28.10;;;;;;5070450;28;20227;-50
2021/05/05 11:57:09;;;;;;;11.77;8.73;;;23.20;28.20;;;;;;5063954;28;20570;-48
2021/05/05 11:59:35;;;;;;;10.57;8.90;;;23.20;28.20;;;;;;5073132;28;20231;-45
2021/05/05 12:02:01;;;;;;;11.93;8.73;;;23.10;28.10;;;;;;5064310;28;20308;-42
2021/05/05 12:04:27;;;;;;;13.43;8.40;;;23.20;28.20;;;;;;5060590;28;20681;-49
2021/05/05 12:06:53;;;;;;;11.57;8.88;;;23.20;28.20;;;;;;5076152;28;20208;-45
2021/05/05 12:09:19;;;;;;;12.02;8.38;;;23.20;28.20;;;;;;5075901;28;20231;-41
2021/05/05 12:11:45;;;;;;;13.68;8.63;;;23.20;28.20;;;;;;5070646;28;20229;-46
2021/05/05 12:14:11;;;;;;;12.17;8.80;;;23.20;28.40;;;;;;5073404;28;20823;-50
2021/05/05 12:16:39;;;;;;;13.53;9.37;;;23.20;28.50;;;;;;5076473;28;20212;-46
2021/05/05 12:19:05;;;;;;;15.10;8.60;;;23.20;28.60;;;;;;5070931;28;20205;-42
2021/05/05 12:21:31;;;;;;;12.05;8.25;;;23.10;28.60;;;;;;5073587;28;20251;-53
2021/05/05 12:23:59;;;;;;;12.73;8.60;;;23.10;28.60;;;;;;5057594;28;20233;-50
2021/05/05 12:26:25;;;;;;;12.23;8.07;;;23.10;28.70;;;;;;5068058;28;20200;-50
2021/05/05 12:28:51;;;;;;;10.82;8.32;;;23.10;28.80;;;;;;5070312;28;20691;-43
2021/05/05 12:31:17;;;;;;;12.00;8.57;;;23.20;28.80;;;;;;5070595;28;20311;-48
2021/05/05 12:33:43;;;;;;;12.93;8.35;;;23.20;28.90;;;;;;5071278;28;20225;-43
2021/05/05 12:36:09;;;;;;;11.43;8.50;;;23.10;28.90;;;;;;5068558;28;20247;-48
2021/05/05 12:38:35;;;;;;;13.10;8.33;;;23.10;28.90;;;;;;5056989;28;20201;-47
2021/05/05 12:41:01;;;;;;;11.80;7.60;;;23.20;29.10;;;;;;5065438;28;20653;-46
2021/05/05 12:43:27;;;;;;;11.68;8.10;;;23.20;29.20;;;;;;5061227;28;20217;-46